Wilmot Flat, New Hampshire
Current Conditions -  °F | °C
As of 9:53 PM on Thursday 20 Nov 2014 (Local Time) from KLEB Reporting Station
Broken Clouds Broken Clouds  
Wind Chill: 20°   Ceiling: 6000
Heat Index: 28°   Visibility: 10mi
Dew Point:   Wind: 8mph
Humidity: 45%   Direction: 210°SSW
Pressure: 29.86"   Gusts: NA
Location:  43.4448°N, 71.9168°W
Report Text: KLEB 210253Z 21007KT 10SM BKN060 M02/M13 A2986 RMK AO2 SLP119 T10221128 51008
Loading
Personal Weather Stations






























Interactive Weather Map New forecast layout! Learn more

10-Day Weather Forecast

Advertisements
Track Severe Weather on mobile